Time;durP1;ratioP1;P1;durP2;ratioP2;P2;SDS_P1;SDS_P2;PMS_P1;PMS_P2;Temp;Humidity;BMP_temperature;BMP_pressure;BME280_temperature;BME280_humidity;BME280_pressure;Samples;Min_cycle;Max_cycle;Signal;HPM_P1;HPM_P2
2023/07/27 00:00:45;;;;;;;;;;;;;;;22.26;41.67;96902.16;4233899;28;5650;-65
2023/07/27 00:02:47;;;;;;;;;;;;;;;22.25;41.33;96908.59;4233922;28;5745;-65
2023/07/27 00:04:51;;;;;;;;;;;;;;;22.24;41.37;96905.09;4233821;28;5799;-65
2023/07/27 00:06:54;;;;;;;;;;;;;;;22.23;41.42;96891.91;4225658;28;5666;-65
2023/07/27 00:08:56;;;;;;;;;;;;;;;22.21;41.53;96897.56;4234034;28;6306;-68
2023/07/27 00:10:59;;;;;;;;;;;;;;;22.21;41.82;96897.56;4233581;28;5788;-68
2023/07/27 00:13:02;;;;;;;;;;;;;;;22.20;41.78;96890.56;4233648;28;5674;-68
2023/07/27 00:15:06;;;;;;;;;;;;;;;22.20;41.94;96897.81;4233514;28;5608;-68
2023/07/27 00:17:10;;;;;;;;;;;;;;;22.19;41.75;96893.50;4233548;28;5673;-69
2023/07/27 00:19:13;;;;;;;;;;;;;;;22.16;41.47;96892.16;4233905;28;5646;-68
2023/07/27 00:21:16;;;;;;;;;;;;;;;22.16;41.66;96891.34;4232786;28;5759;-68
2023/07/27 00:23:19;;;;;;;;;;;;;;;22.12;42.09;96890.25;4231711;28;5647;-69
2023/07/27 00:25:21;;;;;;;;;;;;;;;22.11;42.06;96888.66;4231334;28;5616;-69
2023/07/27 00:27:24;;;;;;;;;;;;;;;22.08;41.81;96885.41;4233680;28;6371;-68
2023/07/27 00:29:27;;;;;;;;;;;;;;;22.06;41.63;96892.91;4225404;28;5743;-69
2023/07/27 00:31:30;;;;;;;;;;;;;;;22.07;42.18;96880.28;4229834;28;5694;-69
2023/07/27 00:33:34;;;;;;;;;;;;;;;22.05;42.07;96885.88;4233147;28;5654;-69
2023/07/27 00:35:37;;;;;;;;;;;;;;;22.05;42.22;96880.50;4233604;28;5741;-69
2023/07/27 00:37:40;;;;;;;;;;;;;;;22.06;42.16;96881.34;4233461;28;5111;-69
2023/07/27 00:39:43;;;;;;;;;;;;;;;22.04;42.03;96881.56;4233448;27;5757;-69
2023/07/27 00:41:46;;;;;;;;;;;;;;;22.04;41.91;96886.97;4228859;28;5604;-70
2023/07/27 00:43:49;;;;;;;;;;;;;;;22.02;41.96;96881.03;4233628;28;5663;-70
2023/07/27 00:45:52;;;;;;;;;;;;;;;22.00;41.99;96877.81;4224896;28;6437;-69
2023/07/27 00:47:55;;;;;;;;;;;;;;;21.99;41.95;96876.19;4233467;28;5649;-69
2023/07/27 00:49:59;;;;;;;;;;;;;;;21.96;41.97;96876.69;4233618;28;5663;-69
2023/07/27 00:52:07;;;;;;;;;;;;;;;21.97;42.35;96885.56;4232047;28;5773;-69
2023/07/27 00:54:11;;;;;;;;;;;;;;;21.94;42.32;96878.84;4230631;28;5655;-67
2023/07/27 00:56:15;;;;;;;;;;;;;;;21.96;41.98;96887.47;4236648;28;5624;-68
2023/07/27 00:58:18;;;;;;;;;;;;;;;21.95;42.35;96880.47;4234744;28;5670;-69
2023/07/27 01:00:21;;;;;;;;;;;;;;;21.96;41.90;96886.66;4232550;28;5798;-69
2023/07/27 01:02:24;;;;;;;;;;;;;;;21.93;42.33;96885.31;4233633;28;5655;-69
2023/07/27 01:04:26;;;;;;;;;;;;;;;21.89;42.46;96878.84;4229735;28;5651;-69
2023/07/27 01:06:31;;;;;;;;;;;;;;;21.86;42.11;96870.47;4223622;28;5646;-69
2023/07/27 01:08:33;;;;;;;;;;;;;;;21.85;42.43;96874.22;4229942;28;5649;-69
2023/07/27 01:10:47;;;;;;;;;;;;;;;21.83;42.69;96871.81;4227572;28;5163;-69
2023/07/27 01:12:58;;;;;;;;;;;;;;;21.80;42.47;96856.19;4236295;28;5673;-69
2023/07/27 01:15:08;;;;;;;;;;;;;;;21.77;42.77;96856.72;4234079;28;5662;-69
2023/07/27 01:17:16;;;;;;;;;;;;;;;21.74;42.72;96857.22;4234594;28;5793;-67
2023/07/27 01:19:50;;;;;;;;;;;;;;;21.74;42.64;96868.00;4236471;28;5748;-69
2023/07/27 01:22:08;;;;;;;;;;;;;;;21.75;42.71;96864.25;4228041;28;5084;-68
2023/07/27 01:24:43;;;;;;;;;;;;;;;21.77;42.48;96856.72;4235879;28;5788;-69
2023/07/27 01:27:15;;;;;;;;;;;;;;;21.74;42.52;96855.34;4236297;27;5649;-68
2023/07/27 01:29:42;;;;;;;;;;;;;;;21.76;42.68;96852.41;4231408;28;5628;-68
2023/07/27 01:31:50;;;;;;;;;;;;;;;21.77;42.54;96845.97;4235625;28;5654;-68
2023/07/27 01:33:59;;;;;;;;;;;;;;;21.76;42.39;96845.16;4227680;28;6342;-68
2023/07/27 01:36:09;;;;;;;;;;;;;;;21.77;42.61;96849.47;4235976;28;5658;-68
2023/07/27 01:38:13;;;;;;;;;;;;;;;21.72;42.55;96846.72;4236347;28;5725;-68
2023/07/27 01:40:16;;;;;;;;;;;;;;;21.69;42.71;96838.38;4235446;28;5695;-68
2023/07/27 01:42:19;;;;;;;;;;;;;;;21.68;43.01;96842.97;4234885;28;5735;-68
2023/07/27 01:44:23;;;;;;;;;;;;;;;21.70;43.02;96848.06;4235694;28;5766;-68
2023/07/27 01:46:30;;;;;;;;;;;;;;;21.70;42.90;96840.00;4235958;28;5666;-68
2023/07/27 01:48:37;;;;;;;;;;;;;;;21.71;42.75;96839.72;4235737;28;5752;-69
2023/07/27 01:50:41;;;;;;;;;;;;;;;21.67;42.79;96838.66;4235803;28;5646;-69
2023/07/27 01:52:46;;;;;;;;;;;;;;;21.67;42.77;96840.53;4235461;28;5693;-69
2023/07/27 01:54:50;;;;;;;;;;;;;;;21.65;43.16;96832.72;4235669;28;5665;-69
2023/07/27 01:56:55;;;;;;;;;;;;;;;21.64;43.12;96838.38;4227745;28;5654;-69
2023/07/27 01:58:58;;;;;;;;;;;;;;;21.64;43.36;96835.69;4235852;28;6320;-69
2023/07/27 02:01:01;;;;;;;;;;;;;;;21.64;43.26;96835.69;4235474;28;5781;-68
2023/07/27 02:03:06;;;;;;;;;;;;;;;21.65;43.40;96840.00;4235665;27;5995;-69
2023/07/27 02:05:12;;;;;;;;;;;;;;;21.63;42.96;96831.34;4234355;28;8535;-69
2023/07/27 02:07:18;;;;;;;;;;;;;;;21.61;43.31;96830.81;4235528;28;5711;-69
2023/07/27 02:09:20;;;;;;;;;;;;;;;21.61;43.12;96831.63;4235037;28;5801;-68
2023/07/27 02:11:25;;;;;;;;;;;;;;;21.64;43.16;96833.00;4235553;28;5646;-69
2023/07/27 02:13:34;;;;;;;;;;;;;;;21.63;43.22;96828.66;4235710;28;5750;-69
2023/07/27 02:15:40;;;;;;;;;;;;;;;21.62;43.55;96829.72;4235212;28;5778;-69
2023/07/27 02:17:48;;;;;;;;;;;;;;;21.62;43.12;96833.22;4235326;28;5657;-69
2023/07/27 02:19:56;;;;;;;;;;;;;;;21.62;43.27;96829.72;4234975;28;6454;-69
2023/07/27 02:22:03;;;;;;;;;;;;;;;21.62;43.35;96824.34;4227884;28;5748;-69
2023/07/27 02:24:07;;;;;;;;;;;;;;;21.61;43.25;96820.03;4230547;28;5676;-68
2023/07/27 02:26:10;;;;;;;;;;;;;;;21.60;43.41;96824.63;4235309;27;5625;-69
2023/07/27 02:28:13;;;;;;;;;;;;;;;21.59;43.43;96811.44;4235504;28;5646;-68
2023/07/27 02:30:16;;;;;;;;;;;;;;;21.57;43.32;96806.31;4231984;28;5124;-69
2023/07/27 02:32:18;;;;;;;;;;;;;;;21.57;43.32;96808.22;4230243;28;5693;-69
2023/07/27 02:34:21;;;;;;;;;;;;;;;21.55;43.44;96805.78;4235146;28;5662;-69
2023/07/27 02:36:23;;;;;;;;;;;;;;;21.55;43.42;96804.97;4235060;28;5829;-69
2023/07/27 02:38:28;;;;;;;;;;;;;;;21.57;43.40;96813.59;4234687;28;5750;-69
2023/07/27 02:40:31;;;;;;;;;;;;;;;21.57;43.48;96806.31;4229690;28;5635;-69
2023/07/27 02:42:33;;;;;;;;;;;;;;;21.56;43.31;96803.91;4235044;28;5638;-69
2023/07/27 02:44:36;;;;;;;;;;;;;;;21.56;43.70;96806.59;4234730;28;5662;-69
2023/07/27 02:46:39;;;;;;;;;;;;;;;21.57;43.37;96810.91;4234880;28;5658;-69
2023/07/27 02:48:42;;;;;;;;;;;;;;;21.54;43.65;96809.53;4234786;28;6373;-69
2023/07/27 02:50:50;;;;;;;;;;;;;;;21.52;43.65;96800.94;4235036;28;5813;-69
2023/07/27 02:52:53;;;;;;;;;;;;;;;21.44;43.75;96794.16;4230991;28;6833;-68
2023/07/27 02:54:57;;;;;;;;;;;;;;;21.38;43.57;96797.88;4227927;28;5642;-69
2023/07/27 02:57:00;;;;;;;;;;;;;;;21.38;43.67;96797.09;4226235;28;5747;-69
2023/07/27 02:59:03;;;;;;;;;;;;;;;21.40;43.28;96786.88;4232317;28;6392;-69
2023/07/27 03:01:06;;;;;;;;;;;;;;;21.38;43.45;96779.06;4234568;28;5724;-69
2023/07/27 03:03:10;;;;;;;;;;;;;;;21.39;43.24;96810.25;4233974;28;5638;-69
2023/07/27 03:05:13;;;;;;;;;;;;;;;21.31;43.60;96810.78;4234702;28;5620;-69
2023/07/27 03:07:16;;;;;;;;;;;;;;;21.25;43.42;96803.72;4228463;28;5673;-69
2023/07/27 03:09:20;;;;;;;;;;;;;;;21.21;43.26;96816.06;4222683;28;5781;-69
2023/07/27 03:11:24;;;;;;;;;;;;;;;21.18;43.24;96821.97;4221904;28;6245;-69
2023/07/27 03:13:27;;;;;;;;;;;;;;;21.15;43.40;96830.53;4222081;28;5844;-69
2023/07/27 03:15:29;;;;;;;;;;;;;;;21.13;43.64;96830.78;4222335;28;5088;-69
2023/07/27 03:17:32;;;;;;;;;;;;;;;21.13;43.28;96830.78;4227854;28;5830;-69
2023/07/27 03:19:34;;;;;;;;;;;;;;;21.12;43.45;96834.56;4220216;28;5651;-69
2023/07/27 03:21:38;;;;;;;;;;;;;;;21.14;43.33;96829.72;4229709;28;5638;-67
2023/07/27 03:23:41;;;;;;;;;;;;;;;21.19;42.99;96829.78;4233453;28;6343;-68
2023/07/27 03:25:44;;;;;;;;;;;;;;;21.23;42.77;96827.38;4221192;28;5663;-68
2023/07/27 03:27:48;;;;;;;;;;;;;;;21.25;43.23;96825.22;4219552;28;5805;-68
2023/07/27 03:29:51;;;;;;;;;;;;;;;21.26;42.86;96813.44;4222888;28;5671;-68
2023/07/27 03:31:54;;;;;;;;;;;;;;;21.26;42.71;96818.81;4222878;28;5740;-68
2023/07/27 03:33:57;;;;;;;;;;;;;;;21.27;42.80;96809.66;4221722;28;5631;-68
2023/07/27 03:36:00;;;;;;;;;;;;;;;21.29;43.09;96815.59;4221559;28;5748;-68
2023/07/27 03:38:03;;;;;;;;;;;;;;;21.25;42.60;96809.09;4225235;28;5880;-69
2023/07/27 03:40:08;;;;;;;;;;;;;;;21.20;42.70;96819.81;4223330;28;5667;-69
2023/07/27 03:42:11;;;;;;;;;;;;;;;21.17;42.82;96814.94;4219635;28;5850;-69
2023/07/27 03:44:15;;;;;;;;;;;;;;;21.16;42.94;96810.66;4219728;28;5715;-68
2023/07/27 03:46:18;;;;;;;;;;;;;;;21.12;42.97;96817.63;4221070;28;5781;-68
2023/07/27 03:48:21;;;;;;;;;;;;;;;21.12;43.03;96812.25;4224285;28;5634;-68
2023/07/27 03:50:24;;;;;;;;;;;;;;;21.12;42.54;96809.56;4221563;28;5731;-69
2023/07/27 03:52:27;;;;;;;;;;;;;;;21.11;42.61;96807.94;4221371;28;5763;-69
2023/07/27 03:54:30;;;;;;;;;;;;;;;21.08;42.85;96805.78;4224400;28;6393;-68
2023/07/27 03:56:33;;;;;;;;;;;;;;;21.07;42.98;96810.34;4219523;28;5659;-69
2023/07/27 03:58:36;;;;;;;;;;;;;;;21.09;42.92;96812.78;4224850;28;5670;-69
2023/07/27 04:00:41;;;;;;;;;;;;;;;21.12;42.96;96814.94;4221492;28;5668;-69
2023/07/27 04:02:44;;;;;;;;;;;;;;;21.16;42.59;96799.88;4220927;28;5735;-69
2023/07/27 04:04:47;;;;;;;;;;;;;;;21.16;42.65;96800.69;4223286;28;6275;-69
2023/07/27 04:06:50;;;;;;;;;;;;;;;21.19;42.54;96804.78;4222871;28;5659;-69
2023/07/27 04:08:53;;;;;;;;;;;;;;;21.22;42.71;96809.63;4227148;28;5792;-68
2023/07/27 04:10:55;;;;;;;;;;;;;;;21.25;42.42;96806.41;4226339;28;5776;-69
2023/07/27 04:13:18;;;;;;;;;;;;;;;21.28;42.90;96813.16;4225396;28;5844;-69
2023/07/27 04:15:21;;;;;;;;;;;;;;;21.29;42.32;96817.47;4221318;28;5831;-69
2023/07/27 04:17:25;;;;;;;;;;;;;;;21.29;42.89;96814.78;4226116;28;5763;-69
2023/07/27 04:19:29;;;;;;;;;;;;;;;21.30;42.38;96808.34;4233503;28;5802;-69
2023/07/27 04:21:31;;;;;;;;;;;;;;;21.29;42.54;96814.78;4228142;28;5801;-68
2023/07/27 04:23:34;;;;;;;;;;;;;;;21.26;42.66;96824.19;4223715;28;5837;-68
2023/07/27 04:25:37;;;;;;;;;;;;;;;21.25;43.10;96821.72;4231904;28;6367;-68
2023/07/27 04:27:40;;;;;;;;;;;;;;;21.21;43.25;96816.88;4228237;28;5658;-68
2023/07/27 04:29:43;;;;;;;;;;;;;;;21.20;43.19;96819.81;4228203;28;5850;-68
2023/07/27 04:31:46;;;;;;;;;;;;;;;21.21;43.40;96830.31;4228333;28;7029;-68
2023/07/27 04:33:50;;;;;;;;;;;;;;;21.19;43.34;96829.78;4227334;28;5654;-68
2023/07/27 04:35:53;;;;;;;;;;;;;;;21.19;43.65;96837.03;4224758;28;5654;-68
2023/07/27 04:37:56;;;;;;;;;;;;;;;21.20;43.44;96836.75;4222351;28;5664;-68
2023/07/27 04:40:00;;;;;;;;;;;;;;;21.21;43.44;96821.44;4230909;28;6769;-68
2023/07/27 04:42:04;;;;;;;;;;;;;;;21.20;43.70;96828.69;4228212;28;5650;-68
2023/07/27 04:44:07;;;;;;;;;;;;;;;21.15;43.42;96828.66;4228164;28;5773;-69
2023/07/27 04:46:11;;;;;;;;;;;;;;;21.10;43.84;96831.31;4229709;28;5671;-69
2023/07/27 04:48:13;;;;;;;;;;;;;;;21.06;43.72;96834.75;4227703;28;5646;-69
2023/07/27 04:50:18;;;;;;;;;;;;;;;21.03;43.88;96838.78;4226940;28;5663;-69
2023/07/27 04:52:20;;;;;;;;;;;;;;;21.05;44.27;96838.53;4224774;28;5662;-68
2023/07/27 04:54:24;;;;;;;;;;;;;;;21.07;43.93;96833.72;4225770;28;5844;-68
2023/07/27 04:56:27;;;;;;;;;;;;;;;21.03;43.99;96814.59;4225111;28;5862;-69
2023/07/27 04:58:30;;;;;;;;;;;;;;;21.02;43.93;96820.25;4228169;28;5666;-68
2023/07/27 05:00:33;;;;;;;;;;;;;;;21.01;44.37;96827.50;4226266;28;5671;-68
2023/07/27 05:02:36;;;;;;;;;;;;;;;21.04;44.02;96837.72;4225212;28;5638;-68
2023/07/27 05:04:39;;;;;;;;;;;;;;;21.08;44.50;96829.97;4225908;28;5650;-69
2023/07/27 05:06:42;;;;;;;;;;;;;;;21.07;44.30;96831.84;4227629;28;5735;-69
2023/07/27 05:08:45;;;;;;;;;;;;;;;21.03;44.25;96825.34;4223146;28;5802;-69
2023/07/27 05:10:48;;;;;;;;;;;;;;;21.06;44.40;96834.75;4227877;28;5634;-68
2023/07/27 05:12:51;;;;;;;;;;;;;;;21.09;44.47;96836.97;4227978;28;5650;-69
2023/07/27 05:14:54;;;;;;;;;;;;;;;21.12;44.46;96829.19;4228917;28;5654;-68
2023/07/27 05:16:57;;;;;;;;;;;;;;;21.14;44.40;96832.41;4224820;28;5897;-67
2023/07/27 05:19:00;;;;;;;;;;;;;;;21.15;44.25;96822.47;4223723;28;5903;-68
2023/07/27 05:21:04;;;;;;;;;;;;;;;21.13;44.51;96829.97;4222587;28;5679;-68
2023/07/27 05:23:08;;;;;;;;;;;;;;;21.12;44.11;96818.44;4223558;28;5835;-68
2023/07/27 05:25:13;;;;;;;;;;;;;;;21.10;44.22;96809.81;4229929;28;5837;-68
2023/07/27 05:27:16;;;;;;;;;;;;;;;21.12;44.16;96806.88;4235762;28;5712;-68
2023/07/27 05:29:19;;;;;;;;;;;;;;;21.13;44.13;96819.22;4221990;28;5806;-68
2023/07/27 05:31:22;;;;;;;;;;;;;;;21.11;44.12;96818.69;4229965;28;5646;-69
2023/07/27 05:33:25;;;;;;;;;;;;;;;21.12;44.23;96817.63;4229538;28;5772;-68
2023/07/27 05:35:29;;;;;;;;;;;;;;;21.12;44.44;96814.94;4221822;28;5675;-68
2023/07/27 05:37:31;;;;;;;;;;;;;;;21.12;44.26;96810.38;4227258;28;5787;-68
2023/07/27 05:39:35;;;;;;;;;;;;;;;21.13;44.20;96808.47;4224842;28;5643;-68
2023/07/27 05:41:38;;;;;;;;;;;;;;;21.14;44.51;96820.84;4234005;27;5709;-68
2023/07/27 05:43:41;;;;;;;;;;;;;;;21.14;44.46;96826.22;4224770;28;5864;-68
2023/07/27 05:45:44;;;;;;;;;;;;;;;21.13;44.23;96824.63;4223295;28;5846;-68
2023/07/27 05:47:47;;;;;;;;;;;;;;;21.15;44.21;96825.97;4225741;28;5821;-68
2023/07/27 05:49:50;;;;;;;;;;;;;;;21.18;44.13;96830.03;4232724;28;6465;-68
2023/07/27 05:51:53;;;;;;;;;;;;;;;21.19;44.17;96823.59;4231293;28;5765;-68
2023/07/27 05:53:55;;;;;;;;;;;;;;;21.22;44.54;96823.06;4224960;28;5900;-68
2023/07/27 05:56:00;;;;;;;;;;;;;;;21.20;44.64;96809.88;4228684;28;5668;-68
2023/07/27 05:58:03;;;;;;;;;;;;;;;21.20;44.70;96809.06;4227622;28;5671;-68
2023/07/27 06:00:25;;;;;;;;;;;;;;;21.17;44.49;96815.75;4224158;28;5818;-68
2023/07/27 06:02:28;;;;;;;;;;;;;;;21.16;44.59;96821.41;4226725;28;5743;-69
2023/07/27 06:04:31;;;;;;;;;;;;;;;21.17;44.93;96804.19;4223330;28;5659;-68
2023/07/27 06:06:34;;;;;;;;;;;;;;;21.20;44.62;96812.56;4223016;28;5906;-68
2023/07/27 06:08:39;;;;;;;;;;;;;;;21.21;44.63;96805.31;4224477;28;5853;-68
2023/07/27 06:10:41;;;;;;;;;;;;;;;21.22;44.91;96817.69;4222574;28;5757;-68
2023/07/27 06:12:45;;;;;;;;;;;;;;;21.20;44.78;96817.13;4221551;28;5774;-68
2023/07/27 06:14:48;;;;;;;;;;;;;;;21.19;44.91;96812.84;4222694;28;5864;-68
2023/07/27 06:16:51;;;;;;;;;;;;;;;21.19;45.14;96818.22;4222733;28;5910;-68
2023/07/27 06:18:54;;;;;;;;;;;;;;;21.22;45.24;96806.94;4234033;28;5662;-67
2023/07/27 06:20:57;;;;;;;;;;;;;;;21.22;45.47;96809.63;4229908;28;6141;-68
2023/07/27 06:23:00;;;;;;;;;;;;;;;21.24;45.15;96807.47;4235100;28;5621;-68
2023/07/27 06:25:03;;;;;;;;;;;;;;;21.26;45.48;96805.34;4235151;28;5650;-68
2023/07/27 06:27:07;;;;;;;;;;;;;;;21.29;45.57;96802.13;4235267;28;5662;-69
2023/07/27 06:29:11;;;;;;;;;;;;;;;21.33;45.68;96803.25;4235409;28;5642;-69
2023/07/27 06:31:14;;;;;;;;;;;;;;;21.37;45.85;96804.34;4235316;28;5757;-68
2023/07/27 06:33:18;;;;;;;;;;;;;;;21.40;45.72;96797.63;4235176;28;6033;-69
2023/07/27 06:35:21;;;;;;;;;;;;;;;21.42;45.89;96790.13;4235169;28;5088;-69
2023/07/27 06:37:24;;;;;;;;;;;;;;;21.45;45.65;96793.09;4233672;28;5983;-69
2023/07/27 06:39:28;;;;;;;;;;;;;;;21.44;46.10;96796.06;4230277;28;7792;-68
2023/07/27 06:41:31;;;;;;;;;;;;;;;21.45;45.86;96793.09;4221722;28;5857;-68
2023/07/27 06:43:33;;;;;;;;;;;;;;;21.49;46.45;96798.75;4222338;28;6632;-69
2023/07/27 06:45:38;;;;;;;;;;;;;;;21.52;46.13;96790.19;4224171;28;5922;-68
2023/07/27 06:47:41;;;;;;;;;;;;;;;21.55;46.03;96796.91;4221883;28;5749;-69
2023/07/27 06:49:44;;;;;;;;;;;;;;;21.54;46.41;96803.34;4226969;28;5753;-69
2023/07/27 06:51:47;;;;;;;;;;;;;;;21.59;46.38;96800.69;4221768;28;5825;-69
2023/07/27 06:53:50;;;;;;;;;;;;;;;21.59;46.53;96806.06;4224477;28;5671;-69
2023/07/27 06:55:52;;;;;;;;;;;;;;;21.60;46.71;96803.09;4227842;28;5782;-69
2023/07/27 06:57:56;;;;;;;;;;;;;;;21.63;46.40;96796.38;4224550;28;5837;-69
2023/07/27 06:59:59;;;;;;;;;;;;;;;21.63;46.57;96794.53;4228646;28;5646;-69
2023/07/27 07:02:03;;;;;;;;;;;;;;;21.60;46.67;96784.28;4222837;28;5816;-69
2023/07/27 07:04:06;;;;;;;;;;;;;;;21.64;46.56;96792.66;4221789;28;5638;-68
2023/07/27 07:06:10;;;;;;;;;;;;;;;21.66;47.06;96795.88;4222275;28;5638;-69
2023/07/27 07:08:13;;;;;;;;;;;;;;;21.68;47.08;96788.34;4223927;28;5732;-69
2023/07/27 07:10:18;;;;;;;;;;;;;;;21.70;46.74;96794.25;4221645;28;5734;-69
2023/07/27 07:12:21;;;;;;;;;;;;;;;21.70;47.07;96796.94;4223055;28;5790;-69
2023/07/27 07:14:24;;;;;;;;;;;;;;;21.72;46.79;96795.63;4221324;28;5932;-68
2023/07/27 07:16:27;;;;;;;;;;;;;;;21.73;47.23;96789.16;4223008;28;5791;-69
2023/07/27 07:18:31;;;;;;;;;;;;;;;21.75;47.10;96792.41;4224138;28;5885;-69
2023/07/27 07:20:34;;;;;;;;;;;;;;;21.78;47.49;96793.75;4224550;28;5762;-69
2023/07/27 07:22:37;;;;;;;;;;;;;;;21.82;47.26;96794.03;4222165;28;5833;-69
2023/07/27 07:24:40;;;;;;;;;;;;;;;21.81;47.53;96785.16;4225082;28;5838;-69
2023/07/27 07:26:43;;;;;;;;;;;;;;;21.83;47.52;96787.56;4225015;28;6574;-69
2023/07/27 07:28:46;;;;;;;;;;;;;;;21.85;47.25;96785.44;4228650;28;5683;-69
2023/07/27 07:30:48;;;;;;;;;;;;;;;21.88;47.38;96777.66;4232828;28;7270;-69
2023/07/27 07:32:51;;;;;;;;;;;;;;;21.91;47.13;96781.69;4220252;28;5860;-69
2023/07/27 07:34:55;;;;;;;;;;;;;;;21.94;47.21;96789.22;4219971;28;5892;-71
2023/07/27 07:36:58;;;;;;;;;;;;;;;21.95;47.24;96782.75;4219449;28;5659;-71
2023/07/27 07:39:01;;;;;;;;;;;;;;;21.96;47.39;96790.56;4220903;28;5667;-76
2023/07/27 07:41:04;;;;;;;;;;;;;;;21.97;47.73;96786.00;4225979;28;5833;-76
2023/07/27 07:43:10;;;;;;;;;;;;;;;21.98;47.22;96791.13;4221465;28;5109;-71
2023/07/27 07:45:13;;;;;;;;;;;;;;;22.00;47.62;96794.38;4221335;28;5968;-77
2023/07/27 07:47:16;;;;;;;;;;;;;;;22.02;47.67;96789.53;4227638;28;5654;-74
2023/07/27 07:49:19;;;;;;;;;;;;;;;22.03;47.36;96788.44;4227339;28;5737;-76
2023/07/27 07:51:24;;;;;;;;;;;;;;;22.01;47.27;96793.28;4222224;28;5790;-71
2023/07/27 07:53:26;;;;;;;;;;;;;;;22.02;47.13;96794.91;4221826;28;5785;-74
2023/07/27 07:55:37;;;;;;;;;;;;;;;22.00;47.64;96791.66;4226269;28;5899;-77
2023/07/27 07:57:40;;;;;;;;;;;;;;;22.00;47.81;96786.28;4220381;28;6465;-75
2023/07/27 07:59:43;;;;;;;;;;;;;;;22.04;47.59;96792.75;4220229;28;5646;-73
2023/07/27 08:01:45;;;;;;;;;;;;;;;22.07;47.57;96799.50;4225731;28;5739;-73
2023/07/27 08:03:48;;;;;;;;;;;;;;;22.09;47.45;96789.31;4225703;27;5976;-72
2023/07/27 08:05:50;;;;;;;;;;;;;;;22.12;47.75;96788.75;4229009;27;5798;-70
2023/07/27 08:07:55;;;;;;;;;;;;;;;22.13;47.78;96794.97;4225327;28;5814;-75
2023/07/27 08:09:58;;;;;;;;;;;;;;;22.16;47.78;96794.41;4226807;28;5663;-75
2023/07/27 08:12:01;;;;;;;;;;;;;;;22.18;47.86;96786.88;4227707;28;5770;-72
2023/07/27 08:14:04;;;;;;;;;;;;;;;22.18;47.67;96792.25;4227449;28;6241;-74
2023/07/27 08:16:07;;;;;;;;;;;;;;;22.19;47.49;96788.50;4223895;28;5746;-70
2023/07/27 08:18:10;;;;;;;;;;;;;;;22.18;47.96;96785.00;4234333;28;5646;-72
2023/07/27 08:20:13;;;;;;;;;;;;;;;22.20;47.85;96796.31;4229399;28;5766;-70
2023/07/27 08:22:16;;;;;;;;;;;;;;;22.20;47.57;96784.72;4235279;27;5749;-71
2023/07/27 08:24:21;;;;;;;;;;;;;;;22.21;47.66;96786.38;4237052;28;5749;-71
2023/07/27 08:26:24;;;;;;;;;;;;;;;22.23;47.89;96784.22;4237907;28;5815;-72
2023/07/27 08:28:26;;;;;;;;;;;;;;;22.24;47.82;96785.81;4235338;28;5734;-72
2023/07/27 08:30:29;;;;;;;;;;;;;;;22.24;47.67;96785.81;4223431;28;5651;-73
2023/07/27 08:32:32;;;;;;;;;;;;;;;22.24;47.53;96785.81;4230277;28;5736;-74
2023/07/27 08:34:35;;;;;;;;;;;;;;;22.26;47.96;96783.66;4225988;28;5826;-71
2023/07/27 08:36:38;;;;;;;;;;;;;;;22.27;47.52;96786.09;4230242;28;5642;-72
2023/07/27 08:38:41;;;;;;;;;;;;;;;22.28;47.96;96785.00;4223996;28;5830;-70
2023/07/27 08:40:54;;;;;;;;;;;;;;;22.30;47.44;96782.84;4222608;28;5683;-73
2023/07/27 08:42:57;;;;;;;;;;;;;;;22.32;47.92;96785.31;4224291;28;5659;-74
2023/07/27 08:45:00;;;;;;;;;;;;;;;22.33;47.68;96784.22;4228211;28;5790;-74
2023/07/27 08:47:05;;;;;;;;;;;;;;;22.30;47.75;96784.72;4226468;28;5725;-72
2023/07/27 08:49:09;;;;;;;;;;;;;;;22.29;47.49;96772.34;4223372;28;5853;-71
2023/07/27 08:51:12;;;;;;;;;;;;;;;22.29;47.73;96766.97;4224543;28;5667;-72
2023/07/27 08:53:16;;;;;;;;;;;;;;;22.30;47.33;96764.00;4224934;28;5794;-72
2023/07/27 08:55:19;;;;;;;;;;;;;;;22.30;47.40;96757.81;4230832;28;5638;-73
2023/07/27 08:57:24;;;;;;;;;;;;;;;22.31;47.80;96754.03;4230534;28;5861;-75
2023/07/27 08:59:25;;;;;;;;;;;;;;;22.32;47.36;96747.59;4227746;28;5658;-73
2023/07/27 09:01:29;;;;;;;;;;;;;;;22.34;47.76;96748.13;4236776;28;5704;-72
2023/07/27 09:03:32;;;;;;;;;;;;;;;22.36;47.75;96743.28;4228471;28;5662;-71
2023/07/27 09:05:42;;;;;;;;;;;;;;;22.35;47.67;96738.97;4236847;28;5697;-71
2023/07/27 09:07:48;;;;;;;;;;;;;;;22.35;47.36;96733.59;4235915;28;6542;-71
2023/07/27 09:09:52;;;;;;;;;;;;;;;22.32;47.49;96739.53;4236859;28;5650;-72
2023/07/27 09:11:55;;;;;;;;;;;;;;;22.31;47.70;96741.41;4230175;28;5638;-72
2023/07/27 09:14:03;;;;;;;;;;;;;;;22.33;47.70;96736.56;4221889;27;5688;-74
2023/07/27 09:16:08;;;;;;;;;;;;;;;22.38;47.51;96743.81;4232549;27;5757;-71
2023/07/27 09:18:13;;;;;;;;;;;;;;;22.39;47.67;96742.72;4225715;28;5879;-69
2023/07/27 09:20:15;;;;;;;;;;;;;;;22.41;47.41;96737.06;4226694;27;5621;-70
2023/07/27 09:22:19;;;;;;;;;;;;;;;22.43;47.63;96740.31;4220438;27;6000;-72
2023/07/27 09:24:23;;;;;;;;;;;;;;;22.44;47.54;96731.97;4213054;27;5713;-74
2023/07/27 09:26:26;;;;;;;;;;;;;;;22.46;47.39;96739.78;4205589;27;7776;-71
2023/07/27 09:28:30;;;;;;;;;;;;;;;22.47;47.54;96730.63;4213568;27;5729;-80
2023/07/27 09:30:35;;;;;;;;;;;;;;;22.47;47.51;96734.13;4220112;27;6406;-71
2023/07/27 09:32:38;;;;;;;;;;;;;;;22.49;47.33;96729.25;4213008;27;5794;-77
2023/07/27 09:34:41;;;;;;;;;;;;;;;22.52;47.04;96727.91;4218973;27;6788;-82
2023/07/27 09:36:43;;;;;;;;;;;;;;;22.55;46.89;96728.19;4211673;27;5721;-71
2023/07/27 09:38:46;;;;;;;;;;;;;;;22.58;47.32;96727.66;4214905;27;5671;-78
2023/07/27 09:40:49;;;;;;;;;;;;;;;22.58;47.00;96724.94;4216790;27;5888;-77
2023/07/27 09:42:51;;;;;;;;;;;;;;;22.61;46.75;96729.78;4227683;28;5638;-71
2023/07/27 09:44:55;;;;;;;;;;;;;;;22.63;46.81;96733.00;4232975;27;5725;-74
2023/07/27 09:46:59;;;;;;;;;;;;;;;22.65;46.97;96720.09;4235211;27;5709;-70
2023/07/27 09:49:02;;;;;;;;;;;;;;;22.68;46.88;96721.44;4228608;28;5863;-72
2023/07/27 09:51:07;;;;;;;;;;;;;;;22.72;46.63;96716.31;4232313;27;5858;-72
2023/07/27 09:53:13;;;;;;;;;;;;;;;22.74;46.68;96720.34;4225004;27;5655;-77
2023/07/27 09:55:17;;;;;;;;;;;;;;;22.76;46.34;96703.88;4232122;27;5674;-90
2023/07/27 09:57:21;;;;;;;;;;;;;;;22.77;46.44;96708.22;4231726;27;5721;-75
2023/07/27 09:59:25;;;;;;;;;;;;;;;22.79;46.65;96711.44;4237676;28;5476;-76
2023/07/27 10:01:28;;;;;;;;;;;;;;;22.81;46.41;96706.59;4231093;28;5713;-74
2023/07/27 10:03:33;;;;;;;;;;;;;;;22.85;46.48;96704.97;4230104;27;7007;-75
2023/07/27 10:05:37;;;;;;;;;;;;;;;22.86;46.41;96706.59;4229907;27;5634;-75
2023/07/27 10:07:42;;;;;;;;;;;;;;;22.88;46.08;96705.25;4233289;28;5708;-69
2023/07/27 10:10:24;;;;;;;;;;;;;;;22.88;46.18;96715.25;4233396;28;5624;-74
2023/07/27 10:12:28;;;;;;;;;;;;;;;22.90;46.17;96707.69;4228983;28;5774;-75
2023/07/27 10:14:33;;;;;;;;;;;;;;;22.88;46.01;96713.34;4223256;28;5874;-76
2023/07/27 10:16:36;;;;;;;;;;;;;;;22.90;46.27;96707.69;4218904;27;5683;-77
2023/07/27 10:18:45;;;;;;;;;;;;;;;22.90;45.67;96713.06;4229566;28;5634;-76
2023/07/27 10:20:48;;;;;;;;;;;;;;;22.88;45.66;96701.75;4229240;27;5754;-69
2023/07/27 10:22:52;;;;;;;;;;;;;;;22.88;45.69;96701.75;4225096;27;5645;-76
2023/07/27 10:24:57;;;;;;;;;;;;;;;22.88;45.49;96712.53;4231075;28;5808;-72
2023/07/27 10:27:05;;;;;;;;;;;;;;;22.86;45.72;96710.09;4226726;27;5687;-77
2023/07/27 10:29:14;;;;;;;;;;;;;;;22.85;45.31;96699.59;4222357;28;5694;-70
2023/07/27 10:31:19;;;;;;;;;;;;;;;22.85;45.54;96696.91;4225651;27;5650;-70
2023/07/27 10:33:27;;;;;;;;;;;;;;;22.86;45.75;96688.53;4227368;27;5768;-66
2023/07/27 10:35:52;;;;;;;;;;;;;;;22.85;45.43;96689.63;4224475;27;5854;-76
2023/07/27 10:37:56;;;;;;;;;;;;;;;22.86;45.77;96690.44;4225957;27;5814;-73
2023/07/27 10:39:59;;;;;;;;;;;;;;;22.88;45.23;96682.91;4227785;27;7713;-70
2023/07/27 10:42:05;;;;;;;;;;;;;;;22.87;45.65;96678.56;4219828;27;6368;-70
2023/07/27 10:44:17;;;;;;;;;;;;;;;22.88;45.58;96672.13;4221149;27;5814;-70
2023/07/27 10:46:24;;;;;;;;;;;;;;;22.88;45.13;96667.53;4222594;27;5675;-69
2023/07/27 10:48:36;;;;;;;;;;;;;;;22.89;45.18;96661.06;4223887;27;6326;-74
2023/07/27 10:50:41;;;;;;;;;;;;;;;22.89;45.00;96663.75;4221417;27;5677;-67
2023/07/27 10:52:44;;;;;;;;;;;;;;;22.91;45.08;96656.19;4218095;27;5765;-74
2023/07/27 10:54:48;;;;;;;;;;;;;;;22.94;45.04;96658.31;4219821;27;5789;-68
2023/07/27 10:56:52;;;;;;;;;;;;;;;22.98;45.04;96663.97;4228315;28;5096;-74